createdAt,value
2018-03-25T00:00:57.149Z,18.70
2018-03-25T00:03:23.390Z,18.97
2018-03-25T00:05:49.934Z,19.67
2018-03-25T00:08:16.224Z,18.40
2018-03-25T00:10:42.441Z,18.60
2018-03-25T00:13:08.667Z,18.70
2018-03-25T00:15:34.886Z,20.43
2018-03-25T00:18:01.838Z,19.70
2018-03-25T00:20:28.902Z,18.50
2018-03-25T00:22:55.508Z,19.63
2018-03-25T00:25:21.777Z,19.27
2018-03-25T00:27:47.987Z,20.53
2018-03-25T00:30:14.209Z,18.43
2018-03-25T00:32:41.200Z,18.00
2018-03-25T00:35:07.428Z,20.10
2018-03-25T00:37:33.683Z,17.70
2018-03-25T00:39:59.909Z,18.83
2018-03-25T00:42:26.310Z,18.07
2018-03-25T00:44:52.537Z,16.60
2018-03-25T00:47:18.816Z,17.97
2018-03-25T00:49:45.813Z,17.20
2018-03-25T00:52:12.282Z,16.87
2018-03-25T00:54:38.518Z,17.90
2018-03-25T00:57:05.162Z,15.23
2018-03-25T00:59:31.398Z,17.40
2018-03-25T01:01:57.645Z,16.70
2018-03-25T01:04:24.877Z,15.30
2018-03-25T01:06:51.894Z,16.50
2018-03-25T01:09:18.342Z,15.67
2018-03-25T01:11:44.654Z,14.40
2018-03-25T01:14:10.886Z,13.33
2018-03-25T01:16:37.153Z,13.17
2018-03-25T01:19:04.120Z,13.10
2018-03-25T01:21:30.342Z,14.83
2018-03-25T01:23:57.394Z,13.97
2018-03-25T01:26:24.355Z,13.97
2018-03-25T01:28:50.568Z,14.07
2018-03-25T01:31:16.808Z,13.20
2018-03-25T01:33:43.070Z,14.63
2018-03-25T01:36:09.327Z,13.63
2018-03-25T01:38:35.564Z,12.57
2018-03-25T01:41:02.578Z,14.23
2018-03-25T01:43:28.830Z,13.13
2018-03-25T01:45:55.066Z,13.40
2018-03-25T01:48:21.330Z,13.67
2018-03-25T01:50:47.538Z,12.70
2018-03-25T01:53:13.781Z,14.03
2018-03-25T01:55:39.973Z,13.80
2018-03-25T01:58:06.265Z,12.90
2018-03-25T02:00:32.475Z,13.67
2018-03-25T02:02:58.840Z,12.60
2018-03-25T02:05:31.979Z,13.20
2018-03-25T02:07:58.583Z,13.43
2018-03-25T02:10:24.929Z,12.50
2018-03-25T02:12:51.184Z,14.17
2018-03-25T02:15:18.158Z,12.60
2018-03-25T02:17:44.403Z,12.67
2018-03-25T02:20:10.634Z,13.47
2018-03-25T02:22:36.913Z,14.40
2018-03-25T02:25:03.970Z,12.00
2018-03-25T02:27:30.253Z,13.27
2018-03-25T02:29:56.563Z,13.73
2018-03-25T02:32:22.807Z,13.03
2018-03-25T02:34:49.067Z,12.80
2018-03-25T02:37:15.312Z,12.40
2018-03-25T02:39:42.282Z,12.40
2018-03-25T02:42:08.512Z,11.43
2018-03-25T02:44:34.769Z,13.67
2018-03-25T02:47:01.026Z,12.97
2018-03-25T02:49:27.265Z,12.03
2018-03-25T02:51:54.338Z,13.40
2018-03-25T02:54:20.555Z,12.00
2018-03-25T02:56:46.901Z,13.43
2018-03-25T02:59:13.151Z,11.70
2018-03-25T03:01:39.545Z,13.27
2018-03-25T03:04:06.507Z,12.70
2018-03-25T03:06:32.820Z,12.20
2018-03-25T03:08:59.791Z,13.03
2018-03-25T03:11:26.013Z,11.47
2018-03-25T03:13:52.289Z,12.97
2018-03-25T03:16:18.538Z,11.90
2018-03-25T03:18:44.795Z,11.57
2018-03-25T03:21:11.595Z,11.50
2018-03-25T03:23:38.726Z,13.20
2018-03-25T03:26:04.986Z,11.77
2018-03-25T03:28:31.286Z,12.90
2018-03-25T03:30:57.491Z,13.63
2018-03-25T03:33:23.721Z,12.30
2018-03-25T03:35:49.952Z,12.77
2018-03-25T03:38:16.170Z,11.43
2018-03-25T03:40:42.366Z,12.23
2018-03-25T03:43:08.639Z,12.30
2018-03-25T03:45:34.859Z,13.13
2018-03-25T03:48:01.102Z,14.57
2018-03-25T03:50:27.393Z,12.53
2018-03-25T03:52:54.395Z,12.10
2018-03-25T03:55:20.652Z,11.67
2018-03-25T03:57:46.894Z,11.17
2018-03-25T04:00:13.861Z,12.43
2018-03-25T04:02:40.163Z,12.03
2018-03-25T04:05:06.806Z,13.00
2018-03-25T04:07:33.113Z,13.17
2018-03-25T04:09:59.328Z,12.47
2018-03-25T04:12:25.605Z,12.33
2018-03-25T04:14:52.675Z,12.40
2018-03-25T04:17:18.889Z,12.53
2018-03-25T04:19:45.855Z,13.33
2018-03-25T04:22:12.305Z,12.20
2018-03-25T04:24:38.527Z,13.37
2018-03-25T04:27:04.748Z,13.30
2018-03-25T04:29:31.444Z,14.73
2018-03-25T04:31:57.667Z,14.47
2018-03-25T04:34:23.909Z,13.87
2018-03-25T04:36:50.157Z,12.57
2018-03-25T04:39:16.426Z,13.30
2018-03-25T04:41:42.751Z,14.60
2018-03-25T04:44:08.982Z,13.03
2018-03-25T04:46:35.263Z,13.60
2018-03-25T04:49:02.224Z,13.80
2018-03-25T04:51:28.452Z,12.93
2018-03-25T04:53:55.470Z,13.90
2018-03-25T04:56:21.692Z,13.37
2018-03-25T04:58:47.989Z,13.47
2018-03-25T05:01:14.287Z,15.37
2018-03-25T05:03:41.717Z,13.93
2018-03-25T05:06:07.931Z,13.70
2018-03-25T05:08:34.160Z,14.10
2018-03-25T05:11:00.455Z,14.30
2018-03-25T05:13:26.665Z,15.73
2018-03-25T05:15:52.932Z,13.90
2018-03-25T05:18:19.925Z,16.10
2018-03-25T05:20:47.058Z,14.53
2018-03-25T05:23:13.385Z,15.87
2018-03-25T05:25:39.610Z,15.83
2018-03-25T05:28:05.872Z,15.13
2018-03-25T05:30:32.075Z,15.20
2018-03-25T05:32:58.287Z,16.20
2018-03-25T05:35:24.541Z,16.83
2018-03-25T05:37:50.818Z,14.43
2018-03-25T05:40:17.073Z,15.17
2018-03-25T05:42:43.344Z,15.83
2018-03-25T05:45:10.299Z,15.47
2018-03-25T05:47:37.312Z,16.03
2018-03-25T05:50:03.891Z,17.10
2018-03-25T05:52:30.195Z,16.67
2018-03-25T05:54:56.371Z,15.70
2018-03-25T05:57:22.590Z,15.60
2018-03-25T05:59:48.926Z,15.27
2018-03-25T06:02:15.221Z,14.20
2018-03-25T06:04:42.270Z,15.70
2018-03-25T06:07:09.284Z,15.27
2018-03-25T06:09:35.498Z,15.87
2018-03-25T06:12:01.735Z,15.90
2018-03-25T06:14:28.001Z,15.40
2018-03-25T06:16:55.007Z,16.30
2018-03-25T06:19:21.257Z,15.70
2018-03-25T06:21:47.599Z,16.23
2018-03-25T06:24:13.893Z,15.30
2018-03-25T06:26:40.287Z,18.20
2018-03-25T06:29:07.258Z,17.87
2018-03-25T06:31:33.501Z,16.80
2018-03-25T06:33:59.707Z,16.27
2018-03-25T06:36:25.908Z,15.10
2018-03-25T06:38:52.971Z,15.83
2018-03-25T06:41:19.223Z,15.17
2018-03-25T06:43:45.458Z,16.03
2018-03-25T06:46:11.943Z,16.60
2018-03-25T06:48:38.205Z,17.77
2018-03-25T06:51:04.510Z,17.33
2018-03-25T06:53:30.790Z,17.00
2018-03-25T06:55:57.055Z,16.10
2018-03-25T06:58:23.268Z,16.03
2018-03-25T07:00:49.502Z,18.77
2018-03-25T07:03:15.727Z,15.90
2018-03-25T07:05:41.986Z,16.43
2018-03-25T07:08:08.977Z,17.43
2018-03-25T07:10:35.334Z,16.30
2018-03-25T07:13:01.554Z,15.73
2018-03-25T07:15:27.831Z,15.93
2018-03-25T07:17:54.819Z,17.70
2018-03-25T07:20:21.038Z,16.90
2018-03-25T07:22:47.253Z,15.40
2018-03-25T07:25:13.749Z,16.83
2018-03-25T07:27:40.393Z,15.10
2018-03-25T07:30:07.406Z,18.07
2018-03-25T07:32:33.763Z,17.87
2018-03-25T07:35:00.048Z,15.73
2018-03-25T07:37:26.379Z,16.53
2018-03-25T07:39:52.610Z,15.90
2018-03-25T07:42:25.679Z,17.93
2018-03-25T07:44:51.951Z,17.40
2018-03-25T07:47:18.213Z,17.87
2018-03-25T07:49:45.161Z,14.90
2018-03-25T07:52:12.504Z,14.83
2018-03-25T07:54:38.810Z,16.50
2018-03-25T07:57:05.401Z,18.53
2018-03-25T07:59:32.361Z,17.10
2018-03-25T08:01:58.585Z,17.27
2018-03-25T08:04:24.853Z,14.83
2018-03-25T08:06:51.097Z,15.10
2018-03-25T08:09:17.330Z,17.83
2018-03-25T08:11:43.549Z,17.30
2018-03-25T08:14:09.796Z,17.00
2018-03-25T08:16:36.850Z,18.10
2018-03-25T08:19:03.906Z,15.63
2018-03-25T08:21:30.897Z,17.17
2018-03-25T08:23:57.218Z,18.27
2018-03-25T08:26:23.523Z,16.20
2018-03-25T08:28:50.628Z,16.40
2018-03-25T08:31:16.861Z,17.07
2018-03-25T08:33:43.092Z,17.70
2018-03-25T08:36:09.429Z,16.10
2018-03-25T08:38:35.891Z,16.67
2018-03-25T08:41:02.862Z,15.23
2018-03-25T08:43:29.819Z,15.57
2018-03-25T08:45:56.073Z,15.90
2018-03-25T08:48:22.285Z,15.40
2018-03-25T08:50:48.502Z,17.20
2018-03-25T08:53:14.709Z,17.20
2018-03-25T08:55:40.946Z,16.50
2018-03-25T08:58:07.465Z,14.60
2018-03-25T09:00:40.693Z,14.70
2018-03-25T09:03:06.921Z,14.73
2018-03-25T09:05:33.185Z,14.63
2018-03-25T09:07:59.454Z,16.00
2018-03-25T09:10:25.726Z,14.03
2018-03-25T09:12:51.954Z,14.97
2018-03-25T09:15:18.161Z,14.97
2018-03-25T09:17:51.432Z,16.87
2018-03-25T09:20:18.531Z,15.57
2018-03-25T09:22:44.857Z,15.10
2018-03-25T09:25:12.183Z,13.90
2018-03-25T09:27:38.452Z,14.97
2018-03-25T09:30:04.811Z,14.87
2018-03-25T09:32:31.484Z,14.80
2018-03-25T09:34:57.755Z,13.13
2018-03-25T09:37:24.776Z,12.83
2018-03-25T09:39:51.008Z,12.77
2018-03-25T09:42:17.446Z,13.80
2018-03-25T09:44:43.783Z,13.33
2018-03-25T09:47:09.988Z,12.57
2018-03-25T09:49:36.298Z,14.57
2018-03-25T09:52:03.276Z,14.73
2018-03-25T09:54:29.519Z,11.80
2018-03-25T09:56:55.758Z,13.57
2018-03-25T09:59:22.022Z,14.60
2018-03-25T10:01:55.099Z,12.63
2018-03-25T10:04:21.375Z,13.93
2018-03-25T10:06:47.649Z,14.33
2018-03-25T10:09:13.905Z,13.70
2018-03-25T10:11:40.972Z,12.60
2018-03-25T10:14:07.211Z,13.43
2018-03-25T10:16:33.467Z,12.03
2018-03-25T10:18:59.951Z,11.80
2018-03-25T10:21:26.912Z,11.77
2018-03-25T10:23:53.146Z,13.47
2018-03-25T10:26:20.185Z,13.37
2018-03-25T10:28:46.389Z,13.70
2018-03-25T10:31:13.357Z,12.73
2018-03-25T10:33:42.765Z,12.73
2018-03-25T10:36:09.037Z,11.87
2018-03-25T10:38:35.447Z,12.17
2018-03-25T10:41:01.878Z,13.20
2018-03-25T10:43:28.127Z,12.27
2018-03-25T10:45:54.600Z,11.53
2018-03-25T10:48:21.563Z,13.20
2018-03-25T10:50:48.576Z,13.37
2018-03-25T10:53:14.867Z,11.90
2018-03-25T10:55:41.124Z,11.67
2018-03-25T10:58:08.321Z,14.73
2018-03-25T11:00:34.566Z,12.17
2018-03-25T11:03:01.130Z,12.50
2018-03-25T11:05:27.486Z,12.43
2018-03-25T11:07:53.778Z,10.93
2018-03-25T11:10:19.999Z,12.33
2018-03-25T11:12:46.250Z,11.50
2018-03-25T11:15:12.505Z,13.30
2018-03-25T11:17:38.787Z,13.33
2018-03-25T11:20:05.210Z,13.87
2018-03-25T11:22:31.506Z,12.70
2018-03-25T11:24:57.736Z,12.50
2018-03-25T11:27:24.731Z,14.80
2018-03-25T11:29:51.090Z,12.50
2018-03-25T11:32:17.561Z,13.50
2018-03-25T11:34:44.960Z,14.13
2018-03-25T11:37:11.176Z,14.23
2018-03-25T11:39:37.455Z,12.57
2018-03-25T11:42:03.815Z,12.90
2018-03-25T11:44:30.779Z,15.10
2018-03-25T11:46:57.029Z,12.67
2018-03-25T11:49:23.266Z,13.70
2018-03-25T11:51:49.519Z,14.97
2018-03-25T11:54:15.862Z,15.20
2018-03-25T11:56:43.261Z,14.57
2018-03-25T11:59:09.571Z,15.27
2018-03-25T12:01:36.034Z,14.90
2018-03-25T12:04:02.320Z,14.13
2018-03-25T12:06:29.276Z,15.53
2018-03-25T12:08:56.622Z,13.17
2018-03-25T12:11:22.821Z,14.27
2018-03-25T12:13:49.129Z,15.40
2018-03-25T12:16:15.344Z,16.50
2018-03-25T12:18:41.590Z,14.10
2018-03-25T12:21:07.953Z,16.20
2018-03-25T12:23:35.074Z,15.03
2018-03-25T12:26:01.327Z,15.33
2018-03-25T12:28:27.674Z,14.80
2018-03-25T12:31:08.720Z,15.77
2018-03-25T12:33:35.020Z,15.87
2018-03-25T12:36:02.450Z,14.17
2018-03-25T12:38:29.412Z,15.43
2018-03-25T12:40:55.629Z,15.93
2018-03-25T12:43:22.678Z,17.03
2018-03-25T12:45:49.645Z,15.30
2018-03-25T12:48:15.882Z,15.60
2018-03-25T12:50:42.116Z,47.60
2018-03-25T12:53:08.342Z,16.83
2018-03-25T12:55:34.922Z,16.10
2018-03-25T12:58:01.152Z,15.93
2018-03-25T13:00:27.472Z,15.63
2018-03-25T13:02:53.710Z,17.37
2018-03-25T13:05:19.926Z,15.70
2018-03-25T13:07:46.213Z,16.80
2018-03-25T13:10:12.442Z,17.40
2018-03-25T13:12:38.694Z,14.97
2018-03-25T13:15:04.941Z,16.73
2018-03-25T13:17:31.186Z,15.70
2018-03-25T13:19:57.423Z,16.83
2018-03-25T13:22:23.668Z,15.73
2018-03-25T13:24:49.893Z,16.87
2018-03-25T13:27:16.864Z,16.10
2018-03-25T13:29:43.118Z,18.40
2018-03-25T13:32:09.444Z,18.60
2018-03-25T13:34:35.699Z,15.53
2018-03-25T13:37:02.050Z,17.40
2018-03-25T13:39:28.377Z,17.10
2018-03-25T13:41:54.630Z,17.00
2018-03-25T13:44:21.606Z,17.03
2018-03-25T13:46:47.905Z,17.53
2018-03-25T13:49:14.924Z,16.57
2018-03-25T13:51:41.179Z,16.40
2018-03-25T13:54:07.531Z,15.60
2018-03-25T13:56:33.766Z,14.40
2018-03-25T13:59:00.464Z,16.37
2018-03-25T14:01:27.551Z,16.50
2018-03-25T14:03:53.903Z,15.20
2018-03-25T14:06:20.129Z,16.80
2018-03-25T14:08:46.378Z,17.23
2018-03-25T14:11:12.632Z,16.60
2018-03-25T14:13:38.965Z,17.67
2018-03-25T14:16:05.297Z,14.67
2018-03-25T14:18:31.507Z,18.07
2018-03-25T14:20:57.718Z,16.27
2018-03-25T14:23:23.966Z,15.67
2018-03-25T14:25:50.305Z,16.23
2018-03-25T14:28:16.526Z,16.30
2018-03-25T14:30:42.912Z,15.70
2018-03-25T14:33:09.112Z,15.70
2018-03-25T14:35:36.198Z,16.73
2018-03-25T14:38:02.489Z,16.10
2018-03-25T14:40:29.069Z,16.20
2018-03-25T14:42:55.306Z,17.00
2018-03-25T14:45:21.740Z,16.83
2018-03-25T14:47:47.981Z,21.37
2018-03-25T14:50:14.210Z,17.27
2018-03-25T14:52:40.629Z,16.07
2018-03-25T14:55:06.934Z,17.57
2018-03-25T14:57:33.226Z,17.80
2018-03-25T14:59:59.633Z,16.40
2018-03-25T15:02:25.858Z,16.90
2018-03-25T15:04:52.130Z,17.10
2018-03-25T15:07:18.408Z,17.03
2018-03-25T15:09:44.664Z,17.97
2018-03-25T15:12:11.015Z,17.20
2018-03-25T15:14:37.310Z,17.07
2018-03-25T15:17:03.582Z,19.17
2018-03-25T15:19:30.644Z,16.57
2018-03-25T15:21:57.858Z,16.33
2018-03-25T15:24:24.282Z,16.33
2018-03-25T15:26:51.307Z,18.27
2018-03-25T15:29:17.525Z,16.67
2018-03-25T15:31:43.866Z,17.47
2018-03-25T15:34:10.129Z,17.97
2018-03-25T15:36:36.498Z,18.00
2018-03-25T15:39:02.857Z,16.90
2018-03-25T15:41:29.152Z,17.30
2018-03-25T15:43:56.282Z,17.33
2018-03-25T15:46:22.532Z,17.43
2018-03-25T15:48:50.277Z,17.17
2018-03-25T15:51:16.493Z,19.40
2018-03-25T15:53:42.818Z,17.67
2018-03-25T15:56:09.554Z,18.47
2018-03-25T15:58:35.789Z,17.87
2018-03-25T16:01:02.162Z,19.57
2018-03-25T16:03:29.104Z,18.27
2018-03-25T16:05:56.155Z,18.60
2018-03-25T16:08:23.229Z,18.60
2018-03-25T16:10:49.825Z,18.27
2018-03-25T16:13:16.213Z,17.07
2018-03-25T16:15:42.484Z,18.40
2018-03-25T16:18:09.393Z,16.90
2018-03-25T16:20:36.737Z,18.53
2018-03-25T16:23:03.094Z,17.80
2018-03-25T16:25:29.405Z,20.23
2018-03-25T16:27:55.728Z,19.20
2018-03-25T16:30:21.943Z,20.80
2018-03-25T16:32:50.297Z,17.63
2018-03-25T16:35:16.529Z,19.00
2018-03-25T16:37:42.768Z,18.97
2018-03-25T16:40:10.622Z,19.60
2018-03-25T16:42:36.851Z,18.67
2018-03-25T16:45:03.123Z,18.10
2018-03-25T16:47:29.443Z,19.03
2018-03-25T16:49:55.722Z,19.07
2018-03-25T16:52:21.988Z,18.43
2018-03-25T16:54:48.227Z,17.47
2018-03-25T16:57:15.341Z,18.97
2018-03-25T16:59:41.550Z,18.20
2018-03-25T17:02:08.325Z,18.17
2018-03-25T17:04:35.438Z,19.47
2018-03-25T17:07:01.686Z,20.00
2018-03-25T17:09:27.901Z,20.73
2018-03-25T17:11:54.278Z,21.17
2018-03-25T17:14:21.755Z,20.00
2018-03-25T17:16:48.063Z,19.80
2018-03-25T17:19:16.266Z,20.30
2018-03-25T17:21:42.556Z,19.17
2018-03-25T17:24:08.871Z,22.67
2018-03-25T17:26:35.116Z,21.27
2018-03-25T17:29:01.358Z,21.23
2018-03-25T17:31:28.438Z,22.00
2018-03-25T17:33:54.795Z,21.80
2018-03-25T17:36:21.237Z,20.53
2018-03-25T17:38:47.520Z,20.40
2018-03-25T17:41:13.732Z,20.07
2018-03-25T17:43:40.805Z,19.60
2018-03-25T17:46:07.218Z,19.70
2018-03-25T17:48:34.315Z,21.30
2018-03-25T17:51:00.614Z,19.97
2018-03-25T17:53:26.884Z,22.40
2018-03-25T17:55:53.144Z,22.30
2018-03-25T17:58:19.549Z,19.90
2018-03-25T18:00:46.222Z,23.80
2018-03-25T18:03:12.484Z,20.50
2018-03-25T18:05:38.965Z,19.80
2018-03-25T18:08:05.359Z,21.17
2018-03-25T18:10:31.732Z,21.30
2018-03-25T18:12:58.203Z,24.77
2018-03-25T18:15:26.812Z,22.97
2018-03-25T18:17:54.118Z,22.53
2018-03-25T18:20:20.482Z,21.90
2018-03-25T18:22:47.054Z,22.07
2018-03-25T18:25:13.430Z,21.87
2018-03-25T18:27:40.418Z,21.43
2018-03-25T18:30:06.699Z,20.63
2018-03-25T18:32:32.917Z,21.77
2018-03-25T18:34:59.159Z,23.40
2018-03-25T18:37:25.355Z,23.57
2018-03-25T18:39:51.699Z,23.73
2018-03-25T18:42:18.138Z,22.90
2018-03-25T18:44:44.390Z,23.67
2018-03-25T18:47:11.739Z,24.97
2018-03-25T18:49:38.731Z,23.23
2018-03-25T18:52:04.961Z,23.93
2018-03-25T18:54:31.332Z,26.80
2018-03-25T18:56:57.713Z,23.63
2018-03-25T18:59:24.041Z,23.80
2018-03-25T19:01:50.253Z,24.87
2018-03-25T19:04:17.295Z,25.63
2018-03-25T19:06:44.268Z,27.27
2018-03-25T19:09:10.488Z,25.27
2018-03-25T19:11:37.644Z,25.53
2018-03-25T19:14:03.894Z,26.60
2018-03-25T19:16:30.115Z,26.97
2018-03-25T19:18:56.420Z,27.23
2018-03-25T19:21:23.407Z,28.47
2018-03-25T19:23:49.658Z,27.20
2018-03-25T19:26:15.934Z,29.57
2018-03-25T19:28:42.283Z,27.87
2018-03-25T19:31:08.660Z,29.50
2018-03-25T19:33:34.863Z,27.00
2018-03-25T19:36:02.621Z,28.47
2018-03-25T19:38:28.842Z,28.60
2018-03-25T19:40:55.123Z,29.13
2018-03-25T19:43:21.334Z,28.87
2018-03-25T19:45:47.583Z,31.20
2018-03-25T19:48:14.557Z,27.70
2018-03-25T19:50:40.861Z,30.50
2018-03-25T19:53:07.100Z,31.40
2018-03-25T19:55:34.133Z,30.70
2018-03-25T19:58:00.339Z,30.63
2018-03-25T20:00:26.630Z,35.40
2018-03-25T20:02:52.871Z,32.30
2018-03-25T20:05:19.313Z,31.33
2018-03-25T20:07:45.537Z,31.80
2018-03-25T20:10:11.845Z,29.43
2018-03-25T20:12:38.072Z,33.90
2018-03-25T20:15:04.326Z,33.33
2018-03-25T20:17:30.688Z,31.83
2018-03-25T20:19:56.907Z,35.43
2018-03-25T20:22:23.136Z,33.80
2018-03-25T20:24:49.422Z,33.73
2018-03-25T20:27:16.435Z,33.40
2018-03-25T20:29:42.668Z,36.17
2018-03-25T20:32:08.865Z,36.20
2018-03-25T20:34:35.227Z,36.70
2018-03-25T20:37:01.461Z,37.13
2018-03-25T20:39:27.906Z,36.80
2018-03-25T20:41:54.975Z,40.30
2018-03-25T20:44:21.290Z,37.50
2018-03-25T20:46:48.278Z,36.37
2018-03-25T20:49:14.849Z,37.40
2018-03-25T20:51:41.071Z,37.40
2018-03-25T20:54:07.321Z,36.93
2018-03-25T20:56:33.607Z,40.07
2018-03-25T20:58:59.845Z,38.53
2018-03-25T21:01:26.076Z,37.97
2018-03-25T21:03:52.308Z,38.57
2018-03-25T21:06:18.513Z,39.33
2018-03-25T21:08:44.853Z,39.87
2018-03-25T21:11:18.208Z,40.70
2018-03-25T21:13:45.414Z,37.30
2018-03-25T21:16:11.618Z,37.70
2018-03-25T21:18:37.875Z,41.83
2018-03-25T21:21:04.288Z,39.40
2018-03-25T21:23:30.511Z,40.67
2018-03-25T21:25:56.713Z,38.00
2018-03-25T21:28:22.988Z,40.50
2018-03-25T21:30:49.298Z,39.83
2018-03-25T21:33:15.522Z,37.73
2018-03-25T21:35:41.786Z,38.50
2018-03-25T21:38:08.738Z,38.50
2018-03-25T21:40:34.976Z,38.90
2018-03-25T21:43:01.224Z,38.00
2018-03-25T21:45:28.203Z,39.37
2018-03-25T21:47:54.427Z,35.83
2018-03-25T21:50:20.697Z,38.10
2018-03-25T21:52:46.910Z,38.73
2018-03-25T21:55:13.154Z,40.47
2018-03-25T21:57:39.370Z,40.37
2018-03-25T22:00:05.648Z,40.23
2018-03-25T22:02:32.602Z,35.90
2018-03-25T22:04:59.590Z,39.40
2018-03-25T22:07:26.047Z,37.17
2018-03-25T22:09:52.402Z,39.80
2018-03-25T22:12:19.357Z,38.80
2018-03-25T22:14:46.318Z,40.37
2018-03-25T22:17:12.553Z,37.57
2018-03-25T22:19:38.775Z,41.87
2018-03-25T22:22:05.366Z,39.03
2018-03-25T22:24:31.586Z,38.30
2018-03-25T22:26:57.940Z,41.87
2018-03-25T22:29:24.197Z,39.80
2018-03-25T22:31:50.455Z,39.77
2018-03-25T22:34:16.710Z,39.27
2018-03-25T22:36:42.933Z,39.77
2018-03-25T22:39:09.208Z,36.30
2018-03-25T22:41:36.212Z,38.57
2018-03-25T22:44:02.454Z,38.67
2018-03-25T22:46:28.691Z,38.97
2018-03-25T22:48:54.913Z,37.27
2018-03-25T22:51:21.279Z,39.20
2018-03-25T22:53:48.240Z,36.80
2018-03-25T22:56:14.475Z,38.97
2018-03-25T22:58:40.737Z,34.83
2018-03-25T23:01:06.972Z,36.33
2018-03-25T23:03:33.229Z,35.70
2018-03-25T23:06:00.208Z,36.27
2018-03-25T23:08:26.559Z,38.07
2018-03-25T23:10:52.785Z,39.10
2018-03-25T23:13:19.222Z,39.27
2018-03-25T23:15:45.427Z,38.33
2018-03-25T23:18:11.699Z,39.67
2018-03-25T23:20:37.960Z,37.50
2018-03-25T23:23:04.905Z,39.03
2018-03-25T23:25:31.906Z,38.10
2018-03-25T23:27:58.123Z,38.40
2018-03-25T23:30:24.450Z,37.53
2018-03-25T23:32:50.743Z,40.37
2018-03-25T23:35:17.002Z,37.50
2018-03-25T23:40:35.170Z,36.27
2018-03-25T23:43:01.420Z,33.20
2018-03-25T23:45:27.636Z,36.50
2018-03-25T23:47:53.872Z,35.67
2018-03-25T23:50:20.082Z,34.03
2018-03-25T23:52:46.303Z,33.50
2018-03-25T23:55:12.538Z,33.17
2018-03-25T23:57:38.760Z,35.03
